createdAt,value
2018-12-13T00:01:32.852Z,108.27
2018-12-13T00:04:00.760Z,109.53
2018-12-13T00:06:33.438Z,113.20
2018-12-13T00:08:58.556Z,107.20
2018-12-13T00:11:26.608Z,102.20
2018-12-13T00:13:54.480Z,100.57
2018-12-13T00:16:22.392Z,106.30
2018-12-13T00:18:50.311Z,103.10
2018-12-13T00:21:18.172Z,98.47
2018-12-13T00:23:46.099Z,104.97
2018-12-13T00:26:14.025Z,126.43
2018-12-13T00:28:41.932Z,96.87
2018-12-13T00:31:09.856Z,100.10
2018-12-13T00:33:37.759Z,105.53
2018-12-13T00:36:05.713Z,95.67
2018-12-13T00:38:33.613Z,103.40
2018-12-13T00:41:01.528Z,99.90
2018-12-13T00:43:29.361Z,101.23
2018-12-13T00:45:57.317Z,98.57
2018-12-13T00:48:25.260Z,99.53
2018-12-13T00:50:53.107Z,95.47
2018-12-13T00:53:20.971Z,103.00
2018-12-13T00:55:48.868Z,97.07
2018-12-13T00:58:16.716Z,94.73
2018-12-13T01:00:45.435Z,96.03
2018-12-13T01:03:13.356Z,100.50
2018-12-13T01:05:41.205Z,97.77
2018-12-13T01:08:09.112Z,98.23
2018-12-13T01:10:36.967Z,99.73
2018-12-13T01:13:04.888Z,108.57
2018-12-13T01:15:33.803Z,105.07
2018-12-13T01:18:02.001Z,109.27
2018-12-13T01:20:29.925Z,116.37
2018-12-13T01:22:57.828Z,136.50
2018-12-13T01:25:25.675Z,132.17
2018-12-13T01:27:53.579Z,146.77
2018-12-13T01:30:21.440Z,143.80
2018-12-13T01:32:49.347Z,223.27
2018-12-13T01:35:17.285Z,180.33
2018-12-13T01:37:45.184Z,150.53
2018-12-13T01:40:13.087Z,137.40
2018-12-13T01:42:41.103Z,120.83
2018-12-13T01:45:09.009Z,128.93
2018-12-13T01:47:36.916Z,130.70
2018-12-13T01:50:04.914Z,126.57
2018-12-13T01:52:32.816Z,124.10
2018-12-13T01:55:00.717Z,132.73
2018-12-13T01:57:28.644Z,189.83
2018-12-13T01:59:56.543Z,104.77
2018-12-13T02:02:24.423Z,114.23
2018-12-13T02:04:52.318Z,113.60
2018-12-13T02:07:21.348Z,127.00
2018-12-13T02:09:49.268Z,137.63
2018-12-13T02:12:17.175Z,163.83
2018-12-13T02:14:45.120Z,177.37
2018-12-13T02:17:13.025Z,191.93
2018-12-13T02:19:40.945Z,151.17
2018-12-13T02:22:08.835Z,174.07
2018-12-13T02:24:36.745Z,206.10
2018-12-13T02:27:04.939Z,190.67
2018-12-13T02:29:33.925Z,208.50
2018-12-13T02:32:01.847Z,150.57
2018-12-13T02:34:29.869Z,168.33
2018-12-13T02:36:57.720Z,160.20
2018-12-13T02:39:25.591Z,144.60
2018-12-13T02:41:53.505Z,176.70
2018-12-13T02:44:21.436Z,130.33
2018-12-13T02:46:49.368Z,168.20
2018-12-13T02:49:17.300Z,143.03
2018-12-13T02:51:45.203Z,171.37
2018-12-13T02:54:13.140Z,234.53
2018-12-13T02:56:41.053Z,163.97
2018-12-13T02:59:09.072Z,139.33
2018-12-13T03:01:36.974Z,221.67
2018-12-13T03:04:04.896Z,145.70
2018-12-13T03:06:32.807Z,162.03
2018-12-13T03:09:00.699Z,198.10
2018-12-13T03:11:28.714Z,254.57
2018-12-13T03:13:56.616Z,157.03
2018-12-13T03:16:24.540Z,191.77
2018-12-13T03:18:52.517Z,201.97
2018-12-13T03:21:20.623Z,231.83
2018-12-13T03:23:48.547Z,318.33
2018-12-13T03:26:16.533Z,262.47
2018-12-13T03:28:44.426Z,184.23
2018-12-13T03:31:12.351Z,138.63
2018-12-13T03:33:40.357Z,151.40
2018-12-13T03:36:08.260Z,153.23
2018-12-13T03:38:36.167Z,219.50
2018-12-13T03:41:04.874Z,159.53
2018-12-13T03:43:33.565Z,223.80
2018-12-13T03:46:01.482Z,241.53
2018-12-13T03:48:29.489Z,236.00
2018-12-13T03:50:57.384Z,185.10
2018-12-13T03:53:25.296Z,296.87
2018-12-13T03:55:53.219Z,240.60
2018-12-13T03:58:21.105Z,156.37
2018-12-13T04:00:49.047Z,180.00
2018-12-13T04:03:16.896Z,155.67
2018-12-13T04:05:44.837Z,165.20
2018-12-13T04:08:12.737Z,160.53
2018-12-13T04:10:40.631Z,147.20
2018-12-13T04:13:08.544Z,153.83
2018-12-13T04:15:36.432Z,128.37
2018-12-13T04:18:04.382Z,146.60
2018-12-13T04:20:32.270Z,207.20
2018-12-13T04:23:00.169Z,157.40
2018-12-13T04:25:28.061Z,125.40
2018-12-13T04:27:55.979Z,145.00
2018-12-13T04:30:23.890Z,122.50
2018-12-13T04:32:51.797Z,119.87
2018-12-13T04:35:19.718Z,189.87
2018-12-13T04:37:47.613Z,127.87
2018-12-13T04:40:15.508Z,179.60
2018-12-13T04:42:43.400Z,119.87
2018-12-13T04:45:11.309Z,159.27
2018-12-13T04:47:39.222Z,115.50
2018-12-13T04:50:07.108Z,117.60
2018-12-13T04:52:35.081Z,135.33
2018-12-13T04:55:02.981Z,139.80
2018-12-13T04:57:30.881Z,146.07
2018-12-13T04:59:59.848Z,183.93
2018-12-13T05:02:27.747Z,156.23
2018-12-13T05:04:55.677Z,183.83
2018-12-13T05:07:23.581Z,125.97
2018-12-13T05:09:51.485Z,100.73
2018-12-13T05:12:19.384Z,224.57
2018-12-13T05:14:47.268Z,92.53
2018-12-13T05:17:15.178Z,161.40
2018-12-13T05:19:43.086Z,204.17
2018-12-13T05:22:10.991Z,120.07
2018-12-13T05:24:38.891Z,107.60
2018-12-13T05:27:06.886Z,104.97
2018-12-13T05:29:34.905Z,116.73
2018-12-13T05:32:02.914Z,121.00
2018-12-13T05:34:30.815Z,133.80
2018-12-13T05:36:58.717Z,119.00
2018-12-13T05:39:26.629Z,136.17
2018-12-13T05:41:54.520Z,119.00
2018-12-13T05:44:22.445Z,133.23
2018-12-13T05:46:50.336Z,106.77
2018-12-13T05:49:18.245Z,117.63
2018-12-13T05:51:46.097Z,136.00
2018-12-13T05:54:14.013Z,118.20
2018-12-13T05:56:41.915Z,111.67
2018-12-13T05:59:09.838Z,114.60
2018-12-13T06:01:37.773Z,105.53
2018-12-13T06:04:05.697Z,140.17
2018-12-13T06:06:33.618Z,113.77
2018-12-13T06:09:01.508Z,131.40
2018-12-13T06:11:29.428Z,123.37
2018-12-13T06:13:57.353Z,119.27
2018-12-13T06:16:25.209Z,116.87
2018-12-13T06:18:53.269Z,107.30
2018-12-13T06:21:21.220Z,100.03
2018-12-13T06:23:49.129Z,132.47
2018-12-13T06:26:18.026Z,127.93
2018-12-13T06:28:45.925Z,130.30
2018-12-13T06:31:13.841Z,117.17
2018-12-13T06:33:41.849Z,111.53
2018-12-13T06:36:09.751Z,117.30
2018-12-13T06:38:37.654Z,117.83
2018-12-13T06:41:05.573Z,113.30
2018-12-13T06:43:33.469Z,102.67
2018-12-13T06:46:01.409Z,122.13
2018-12-13T06:48:29.345Z,108.50
2018-12-13T06:50:57.246Z,109.07
2018-12-13T06:53:25.133Z,100.27
2018-12-13T06:55:53.016Z,111.17
2018-12-13T06:58:20.937Z,113.13
2018-12-13T07:00:48.882Z,108.80
2018-12-13T07:03:16.804Z,109.50
2018-12-13T07:05:44.713Z,109.27
2018-12-13T07:08:12.621Z,112.90
2018-12-13T07:10:40.514Z,110.30
2018-12-13T07:13:08.413Z,101.33
2018-12-13T07:15:36.293Z,112.27
2018-12-13T07:18:04.204Z,105.10
2018-12-13T07:20:32.101Z,100.27
2018-12-13T07:23:00.005Z,105.00
2018-12-13T07:25:27.900Z,118.27
2018-12-13T07:27:55.808Z,103.77
2018-12-13T07:30:23.793Z,151.10
2018-12-13T07:32:51.696Z,108.63
2018-12-13T07:35:19.588Z,114.97
2018-12-13T07:37:47.499Z,134.80
2018-12-13T07:40:15.393Z,119.40
2018-12-13T07:42:43.342Z,125.27
2018-12-13T07:45:11.245Z,123.83
2018-12-13T07:47:39.145Z,107.50
2018-12-13T07:50:07.274Z,115.93
2018-12-13T07:52:35.245Z,114.33
2018-12-13T07:55:03.153Z,118.07
2018-12-13T07:57:31.046Z,117.27
2018-12-13T07:59:58.942Z,122.73
2018-12-13T08:02:26.837Z,131.77
2018-12-13T08:04:54.733Z,152.43
2018-12-13T08:07:22.645Z,130.23
2018-12-13T08:09:50.537Z,131.97
2018-12-13T08:12:18.434Z,136.33
2018-12-13T08:14:46.333Z,148.17
2018-12-13T08:17:14.229Z,174.17
2018-12-13T08:19:42.139Z,192.23
2018-12-13T08:22:10.037Z,151.63
2018-12-13T08:24:37.950Z,143.60
2018-12-13T08:27:05.828Z,161.40
2018-12-13T08:29:33.738Z,151.37
2018-12-13T08:32:01.633Z,217.33
2018-12-13T08:34:29.505Z,136.30
2018-12-13T08:36:57.401Z,198.53
2018-12-13T08:39:25.301Z,134.17
2018-12-13T08:41:53.192Z,158.83
2018-12-13T08:44:21.102Z,295.40
2018-12-13T08:46:49.024Z,163.63
2018-12-13T08:49:16.889Z,172.23
2018-12-13T08:51:44.800Z,156.60
2018-12-13T08:54:12.701Z,289.50
2018-12-13T08:56:40.553Z,154.20
2018-12-13T08:59:08.454Z,243.40
2018-12-13T09:01:36.348Z,170.40
2018-12-13T09:04:04.282Z,153.57
2018-12-13T09:06:32.174Z,165.03
2018-12-13T09:09:00.073Z,232.63
2018-12-13T09:11:27.988Z,233.10
2018-12-13T09:13:55.899Z,155.87
2018-12-13T09:16:23.814Z,219.73
2018-12-13T09:18:52.086Z,151.23
2018-12-13T09:21:20.054Z,162.13
2018-12-13T09:23:47.953Z,158.27
2018-12-13T09:26:15.873Z,218.23
2018-12-13T09:28:43.765Z,157.00
2018-12-13T09:31:11.671Z,166.43
2018-12-13T09:33:39.570Z,171.10
2018-12-13T09:36:07.527Z,164.30
2018-12-13T09:38:39.849Z,186.23
2018-12-13T09:41:05.413Z,260.50
2018-12-13T09:43:33.338Z,168.73
2018-12-13T09:46:01.270Z,192.30
2018-12-13T09:48:29.154Z,169.13
2018-12-13T09:50:57.049Z,163.67
2018-12-13T09:53:24.965Z,218.10
2018-12-13T09:55:52.853Z,172.37
2018-12-13T09:58:20.760Z,179.90
2018-12-13T10:00:48.669Z,170.93
2018-12-13T10:03:16.585Z,161.10
2018-12-13T10:05:44.497Z,154.53
2018-12-13T10:08:12.406Z,179.97
2018-12-13T10:10:40.345Z,159.33
2018-12-13T10:13:08.237Z,154.60
2018-12-13T10:15:36.133Z,158.40
2018-12-13T10:18:04.057Z,164.57
2018-12-13T10:20:31.965Z,167.87
2018-12-13T10:22:59.925Z,159.60
2018-12-13T10:25:27.810Z,172.00
2018-12-13T10:27:55.737Z,170.90
2018-12-13T10:30:23.665Z,163.40
2018-12-13T10:32:51.662Z,157.67
2018-12-13T10:35:19.555Z,146.73
2018-12-13T10:37:47.468Z,147.37
2018-12-13T10:40:15.361Z,170.60
2018-12-13T10:42:43.297Z,264.17
2018-12-13T10:45:11.193Z,163.00
2018-12-13T10:47:39.084Z,151.30
2018-12-13T10:50:07.401Z,138.63
2018-12-13T10:52:35.312Z,161.83
2018-12-13T10:55:03.349Z,151.60
2018-12-13T10:57:31.298Z,175.87
2018-12-13T10:59:59.181Z,170.17
2018-12-13T11:02:33.081Z,146.37
2018-12-13T11:05:01.155Z,174.23
2018-12-13T11:07:29.118Z,187.37
2018-12-13T11:09:56.997Z,199.30
2018-12-13T11:12:24.924Z,186.93
2018-12-13T11:14:52.841Z,197.33
2018-12-13T11:17:20.738Z,275.73
2018-12-13T11:19:48.697Z,178.03
2018-12-13T11:22:16.661Z,207.17
2018-12-13T11:24:44.580Z,207.53
2018-12-13T11:27:18.150Z,228.57
2018-12-13T11:29:51.770Z,193.93
2018-12-13T11:32:19.657Z,305.47
2018-12-13T11:34:47.592Z,194.10
2018-12-13T11:37:15.496Z,217.20
2018-12-13T11:39:43.397Z,200.47
2018-12-13T11:42:11.335Z,166.40
2018-12-13T11:44:39.285Z,253.53
2018-12-13T11:47:07.173Z,155.47
2018-12-13T11:49:35.076Z,153.93
2018-12-13T11:52:03.009Z,153.07
2018-12-13T11:54:39.026Z,145.53
2018-12-13T11:57:06.941Z,159.37
2018-12-13T11:59:34.841Z,132.13
2018-12-13T12:02:02.913Z,139.83
2018-12-13T12:04:30.847Z,145.27
2018-12-13T12:06:58.741Z,154.77
2018-12-13T12:09:26.664Z,154.03
2018-12-13T12:11:54.574Z,134.27
2018-12-13T12:14:22.473Z,129.23
2018-12-13T12:16:50.497Z,132.13
2018-12-13T12:19:18.478Z,129.73
2018-12-13T12:21:46.791Z,136.33
2018-12-13T12:24:14.673Z,121.27
2018-12-13T12:26:42.645Z,125.80
2018-12-13T12:29:10.533Z,168.07
2018-12-13T12:31:38.432Z,131.43
2018-12-13T12:34:06.326Z,126.87
2018-12-13T12:36:34.227Z,123.07
2018-12-13T12:39:02.133Z,138.13
2018-12-13T12:41:30.025Z,122.13
2018-12-13T12:43:57.964Z,135.17
2018-12-13T12:46:25.850Z,122.60
2018-12-13T12:48:53.751Z,125.13
2018-12-13T12:51:21.653Z,134.10
2018-12-13T12:53:49.548Z,119.30
2018-12-13T12:56:17.481Z,133.13
2018-12-13T12:58:45.372Z,128.37
2018-12-13T13:01:13.305Z,126.67
2018-12-13T13:03:41.202Z,126.20
2018-12-13T13:06:09.113Z,123.50
2018-12-13T13:08:37.002Z,120.50
2018-12-13T13:11:04.896Z,123.47
2018-12-13T13:13:32.806Z,129.70
2018-12-13T13:16:00.717Z,123.07
2018-12-13T13:18:28.643Z,128.37
2018-12-13T13:20:56.550Z,118.27
2018-12-13T13:23:24.489Z,119.40
2018-12-13T13:25:52.385Z,120.00
2018-12-13T13:28:20.281Z,122.57
2018-12-13T13:30:48.231Z,119.77
2018-12-13T13:33:16.113Z,121.03
2018-12-13T13:35:44.041Z,118.20
2018-12-13T13:38:11.913Z,114.80
2018-12-13T13:40:39.818Z,118.10
2018-12-13T13:43:07.704Z,119.00
2018-12-13T13:45:35.625Z,117.07
2018-12-13T13:48:03.545Z,120.20
2018-12-13T13:50:31.392Z,117.10
2018-12-13T13:52:59.316Z,115.60
2018-12-13T13:55:27.277Z,110.83
2018-12-13T13:57:55.168Z,114.40
2018-12-13T14:00:23.069Z,113.97
2018-12-13T14:02:50.976Z,113.67
2018-12-13T14:05:18.907Z,113.93
2018-12-13T14:07:46.804Z,118.47
2018-12-13T14:10:14.718Z,112.07
2018-12-13T14:12:42.633Z,117.60
2018-12-13T14:15:10.524Z,119.17
2018-12-13T14:17:38.469Z,117.30
2018-12-13T14:20:06.365Z,112.00
2018-12-13T14:22:34.257Z,129.90
2018-12-13T14:25:02.145Z,113.87
2018-12-13T14:27:30.057Z,117.27
2018-12-13T14:29:57.960Z,126.03
2018-12-13T14:32:25.862Z,124.37
2018-12-13T14:34:57.448Z,123.80
2018-12-13T14:37:23.680Z,127.63
2018-12-13T14:39:59.234Z,120.90
2018-12-13T14:42:27.141Z,126.57
2018-12-13T14:44:55.029Z,131.00
2018-12-13T14:47:22.937Z,119.30
2018-12-13T14:49:50.875Z,124.13
2018-12-13T14:52:18.802Z,117.90
2018-12-13T14:54:46.911Z,119.60
2018-12-13T14:57:14.929Z,124.17
2018-12-13T14:59:47.097Z,133.40
2018-12-13T15:02:12.927Z,135.10
2018-12-13T15:04:40.865Z,126.03
2018-12-13T15:07:08.780Z,127.30
2018-12-13T15:09:36.788Z,131.07
2018-12-13T15:12:04.688Z,123.40
2018-12-13T15:14:32.604Z,127.10
2018-12-13T15:17:00.535Z,135.03
2018-12-13T15:19:28.453Z,125.93
2018-12-13T15:21:56.352Z,137.60
2018-12-13T15:24:24.372Z,130.90
2018-12-13T15:26:52.272Z,130.50
2018-12-13T15:29:20.221Z,132.37
2018-12-13T15:31:48.141Z,134.97
2018-12-13T15:34:16.082Z,124.40
2018-12-13T15:36:44.017Z,131.63
2018-12-13T15:39:11.922Z,130.57
2018-12-13T15:41:39.824Z,133.47
2018-12-13T15:44:07.744Z,144.10
2018-12-13T15:46:35.639Z,140.47
2018-12-13T15:49:03.537Z,139.27
2018-12-13T15:51:31.459Z,134.93
2018-12-13T15:53:59.404Z,133.30
2018-12-13T15:56:27.339Z,135.00
2018-12-13T15:58:55.208Z,123.07
2018-12-13T16:01:23.129Z,120.83
2018-12-13T16:03:51.093Z,125.23
2018-12-13T16:06:19.000Z,131.27
2018-12-13T16:08:46.896Z,125.13
2018-12-13T16:11:14.793Z,124.83
2018-12-13T16:13:42.689Z,125.83
2018-12-13T16:16:10.628Z,126.07
2018-12-13T16:18:38.545Z,127.43
2018-12-13T16:21:06.494Z,136.77
2018-12-13T16:23:34.397Z,138.20
2018-12-13T16:26:02.309Z,139.10
2018-12-13T16:28:30.307Z,133.13
2018-12-13T16:30:58.214Z,143.77
2018-12-13T16:33:26.115Z,134.50
2018-12-13T16:35:54.038Z,135.30
2018-12-13T16:38:21.952Z,139.27
2018-12-13T16:40:49.865Z,126.97
2018-12-13T16:43:17.864Z,129.43
2018-12-13T16:45:45.726Z,117.17
2018-12-13T16:48:13.633Z,122.63
2018-12-13T16:50:41.528Z,126.43
2018-12-13T16:53:09.594Z,121.00
2018-12-13T16:55:37.513Z,120.17
2018-12-13T16:58:05.412Z,120.17
2018-12-13T17:00:33.947Z,121.80
2018-12-13T17:03:06.337Z,125.43
2018-12-13T17:05:34.294Z,119.53
2018-12-13T17:08:02.275Z,122.30
2018-12-13T17:10:30.903Z,111.83
2018-12-13T17:12:58.790Z,125.57
2018-12-13T17:15:26.948Z,120.87
2018-12-13T17:17:54.965Z,121.00
2018-12-13T17:20:23.009Z,116.03
2018-12-13T17:22:50.869Z,120.97
2018-12-13T17:25:19.228Z,128.83
2018-12-13T17:27:47.153Z,119.17
2018-12-13T17:30:15.177Z,119.07
2018-12-13T17:32:43.069Z,128.73
2018-12-13T17:35:11.084Z,123.20
2018-12-13T17:37:39.018Z,136.70
2018-12-13T17:40:06.916Z,128.47
2018-12-13T17:42:34.840Z,128.43
2018-12-13T17:45:02.738Z,159.00
2018-12-13T17:47:30.645Z,121.03
2018-12-13T17:49:58.541Z,113.10
2018-12-13T17:52:26.485Z,118.60
2018-12-13T17:54:54.431Z,123.50
2018-12-13T17:57:22.324Z,119.17
2018-12-13T17:59:50.256Z,118.57
2018-12-13T18:02:18.160Z,126.03
2018-12-13T18:04:46.070Z,116.03
2018-12-13T18:07:14.056Z,125.50
2018-12-13T18:09:41.977Z,117.47
2018-12-13T18:12:10.141Z,124.80
2018-12-13T18:14:38.054Z,130.57
2018-12-13T18:17:05.951Z,121.27
2018-12-13T18:19:33.881Z,131.80
2018-12-13T18:22:02.606Z,125.57
2018-12-13T18:24:30.498Z,119.87
2018-12-13T18:26:58.555Z,127.00
2018-12-13T18:29:26.575Z,127.77
2018-12-13T18:31:54.489Z,131.57
2018-12-13T18:34:22.392Z,135.37
2018-12-13T18:36:50.358Z,130.90
2018-12-13T18:39:18.384Z,124.90
2018-12-13T18:41:46.280Z,132.60
2018-12-13T18:44:15.322Z,124.10
2018-12-13T18:46:44.685Z,115.83
2018-12-13T18:49:12.637Z,117.33
2018-12-13T18:51:40.756Z,122.63
2018-12-13T18:54:09.758Z,128.83
2018-12-13T18:56:38.488Z,124.03
2018-12-13T18:59:06.492Z,126.63
2018-12-13T19:01:34.604Z,119.00
2018-12-13T19:04:02.885Z,118.77
2018-12-13T19:06:30.831Z,120.37
2018-12-13T19:08:58.934Z,120.00
2018-12-13T19:11:27.046Z,121.23
2018-12-13T19:13:55.778Z,117.43
2018-12-13T19:16:23.733Z,116.40
2018-12-13T19:18:51.694Z,116.30
2018-12-13T19:21:19.580Z,116.23
2018-12-13T19:23:47.564Z,124.83
2018-12-13T19:26:15.452Z,113.87
2018-12-13T19:28:43.422Z,112.30
2018-12-13T19:31:12.025Z,123.37
2018-12-13T19:33:39.945Z,119.23
2018-12-13T19:36:07.869Z,117.03
2018-12-13T19:38:35.780Z,116.40
2018-12-13T19:41:03.703Z,122.47
2018-12-13T19:43:31.569Z,118.10
2018-12-13T19:45:59.477Z,113.60
2018-12-13T19:48:27.337Z,120.50
2018-12-13T19:50:55.288Z,113.77
2018-12-13T19:53:23.330Z,123.17
2018-12-13T19:55:51.273Z,121.87
2018-12-13T19:58:19.182Z,118.73
2018-12-13T20:00:47.132Z,117.37
2018-12-13T20:03:15.060Z,117.40
2018-12-13T20:05:43.011Z,114.97
2018-12-13T20:08:10.906Z,106.13
2018-12-13T20:10:38.848Z,119.30
2018-12-13T20:13:06.748Z,110.93
2018-12-13T20:15:34.697Z,123.80
2018-12-13T20:18:02.669Z,111.47
2018-12-13T20:20:30.566Z,119.13
2018-12-13T20:22:58.502Z,110.57
2018-12-13T20:25:26.393Z,114.37
2018-12-13T20:27:54.310Z,108.90
2018-12-13T20:30:22.309Z,115.40
2018-12-13T20:32:50.208Z,110.50
2018-12-13T20:35:18.497Z,112.80
2018-12-13T20:37:46.412Z,108.47
2018-12-13T20:40:14.308Z,114.57
2018-12-13T20:42:42.316Z,118.17
2018-12-13T20:45:10.217Z,114.93
2018-12-13T20:47:38.112Z,119.70
2018-12-13T20:50:06.388Z,115.63
2018-12-13T20:52:34.309Z,115.53
2018-12-13T20:55:02.319Z,112.90
2018-12-13T20:57:30.279Z,115.63
2018-12-13T20:59:58.220Z,121.30
2018-12-13T21:02:26.120Z,121.43
2018-12-13T21:04:54.031Z,119.63
2018-12-13T21:07:27.638Z,131.27
2018-12-13T21:09:55.789Z,113.57
2018-12-13T21:12:23.758Z,116.63
2018-12-13T21:14:51.688Z,124.63
2018-12-13T21:17:19.605Z,117.13
2018-12-13T21:19:47.497Z,121.50
2018-12-13T21:22:15.414Z,119.20
2018-12-13T21:24:43.487Z,121.20
2018-12-13T21:27:11.549Z,119.43
2018-12-13T21:29:39.477Z,121.50
2018-12-13T21:32:07.385Z,124.50
2018-12-13T21:34:35.279Z,119.97
2018-12-13T21:37:03.172Z,117.63
2018-12-13T21:39:31.176Z,115.43
2018-12-13T21:41:59.142Z,123.27
2018-12-13T21:44:27.048Z,120.93
2018-12-13T21:46:55.076Z,122.73
2018-12-13T21:49:22.929Z,122.33
2018-12-13T21:51:50.930Z,122.70
2018-12-13T21:54:18.899Z,115.03
2018-12-13T21:56:47.009Z,130.07
2018-12-13T21:59:14.897Z,124.10
2018-12-13T22:01:42.787Z,122.17
2018-12-13T22:04:10.790Z,121.03
2018-12-13T22:06:38.804Z,117.80
2018-12-13T22:09:07.345Z,119.87
2018-12-13T22:11:35.241Z,119.63
2018-12-13T22:14:03.150Z,123.07
2018-12-13T22:16:31.164Z,118.10
2018-12-13T22:18:59.160Z,132.53
2018-12-13T22:21:27.045Z,120.83
2018-12-13T22:23:55.065Z,123.47
2018-12-13T22:26:22.977Z,120.63
2018-12-13T22:28:50.877Z,123.27
2018-12-13T22:31:18.813Z,117.33
2018-12-13T22:33:46.764Z,120.63
2018-12-13T22:36:14.741Z,125.70
2018-12-13T22:38:42.640Z,131.00
2018-12-13T22:41:10.582Z,124.00
2018-12-13T22:43:38.481Z,122.73
2018-12-13T22:46:06.383Z,117.03
2018-12-13T22:48:34.301Z,113.73
2018-12-13T22:51:02.217Z,121.93
2018-12-13T22:53:30.173Z,123.20
2018-12-13T22:55:58.060Z,129.00
2018-12-13T22:58:25.978Z,125.83
2018-12-13T23:00:53.889Z,126.10
2018-12-13T23:03:21.785Z,118.50
2018-12-13T23:05:49.681Z,120.60
2018-12-13T23:08:17.605Z,130.43
2018-12-13T23:10:45.509Z,127.23
2018-12-13T23:13:13.605Z,119.43
2018-12-13T23:15:41.596Z,124.13
2018-12-13T23:18:09.509Z,119.93
2018-12-13T23:20:37.429Z,123.80
2018-12-13T23:23:05.337Z,125.20
2018-12-13T23:25:33.225Z,118.37
2018-12-13T23:28:01.117Z,127.00
2018-12-13T23:30:29.009Z,114.70
2018-12-13T23:32:56.917Z,122.73
2018-12-13T23:35:24.882Z,120.53
2018-12-13T23:37:52.773Z,128.57
2018-12-13T23:40:20.692Z,120.80
2018-12-13T23:42:48.581Z,118.50
2018-12-13T23:45:16.525Z,123.10
2018-12-13T23:47:44.409Z,117.97
2018-12-13T23:50:12.311Z,119.70
2018-12-13T23:52:40.258Z,122.13
2018-12-13T23:55:08.237Z,116.00
2018-12-13T23:57:36.127Z,119.60
